Terminal Aerodrome Forecast
Issued by NWS Charleston, WV

Current Version | Previous Version | Graphics & Text | Print | Product List | Glossary On
Versions: 1 2 3 4 5 6 7 8 9 10 11 12 13 14 15 16 17 18 19 20 21 22 23 24 25 26 27 28 29 30 31 32
000
FTUS41 KRLX 292338
TAFBKW
TAF
KBKW 292338Z 3000/3024 VRB03KT P6SM SHRA SCT006 BKN060
     FM300100 00000KT 5SM BR BKN006
     FM300400 00000KT 2SM BR BKN004
     FM301200 00000KT 5SM BR BKN008
     FM301300 VRB03KT P6SM BKN012
     FM301600 VRB03KT P6SM BKN035
     FM301800 VRB03KT P6SM VCTS BKN045CB=

USA.gov is the U.S. government's official web portal to all federal, state and local government web resources and services.